Time;durP1;ratioP1;P1;durP2;ratioP2;P2;SDS_P1;SDS_P2;PMS_P1;PMS_P2;Temp;Humidity;BMP_temperature;BMP_pressure;BME280_temperature;BME280_humidity;BME280_pressure;Samples;Min_cycle;Max_cycle;Signal;HPM_P1;HPM_P2
2021/10/30 00:01:10;;;;;;;20.58;14.40;;;11.10;92.90;;;;;;5009203;28;20029;-71
2021/10/30 00:03:37;;;;;;;17.50;13.27;;;11.20;92.90;;;;;;5009700;28;20046;-70
2021/10/30 00:06:02;;;;;;;16.95;12.65;;;11.30;92.90;;;;;;5011153;28;20084;-69
2021/10/30 00:08:29;;;;;;;16.63;11.48;;;11.30;92.90;;;;;;5009029;28;20444;-70
2021/10/30 00:10:56;;;;;;;17.80;12.35;;;11.40;92.80;;;;;;5007693;28;20041;-69
2021/10/30 00:13:22;;;;;;;16.92;11.32;;;11.40;92.70;;;;;;4996847;28;20045;-72
2021/10/30 00:15:48;;;;;;;14.70;10.75;;;11.40;92.60;;;;;;5009204;28;20043;-70
2021/10/30 00:18:14;;;;;;;14.93;11.32;;;11.50;92.50;;;;;;5006419;28;20038;-69
2021/10/30 00:20:39;;;;;;;13.10;10.48;;;11.50;92.40;;;;;;5005363;28;20124;-71
2021/10/30 00:23:05;;;;;;;15.77;10.80;;;11.50;92.30;;;;;;5007407;28;20116;-69
2021/10/30 00:25:31;;;;;;;15.55;10.80;;;11.40;92.30;;;;;;5009615;28;20029;-70
2021/10/30 00:27:56;;;;;;;15.13;11.70;;;11.40;92.40;;;;;;5010202;28;20030;-70
2021/10/30 00:30:22;;;;;;;16.17;12.15;;;11.40;92.40;;;;;;5031166;28;20116;-69
2021/10/30 00:32:48;;;;;;;16.08;11.80;;;11.40;92.40;;;;;;5009673;28;20038;-70
2021/10/30 00:35:14;;;;;;;15.20;11.98;;;11.30;92.40;;;;;;5006929;28;20041;-68
2021/10/30 00:37:40;;;;;;;15.73;12.15;;;11.30;92.50;;;;;;5009686;28;20497;-70
2021/10/30 00:40:06;;;;;;;15.48;12.38;;;11.30;92.60;;;;;;5011642;28;20075;-72
2021/10/30 00:42:33;;;;;;;17.45;12.75;;;11.30;92.60;;;;;;5012421;28;20038;-70
2021/10/30 00:44:58;;;;;;;16.25;11.40;;;11.30;92.50;;;;;;5011757;28;20069;-71
2021/10/30 00:47:24;;;;;;;17.25;11.90;;;11.30;92.50;;;;;;5016002;28;20095;-69
2021/10/30 00:49:50;;;;;;;14.68;10.70;;;11.30;92.60;;;;;;5012590;28;20500;-68
2021/10/30 00:52:18;;;;;;;15.50;10.70;;;11.20;92.70;;;;;;5014263;28;20477;-69
2021/10/30 00:54:45;;;;;;;16.40;10.85;;;11.20;92.70;;;;;;5011030;28;20120;-69
2021/10/30 00:57:11;;;;;;;13.80;10.48;;;11.20;92.70;;;;;;5016050;28;20458;-68
2021/10/30 00:59:38;;;;;;;16.60;12.20;;;11.20;92.80;;;;;;5016116;28;20464;-68
2021/10/30 01:02:04;;;;;;;16.98;11.57;;;11.30;92.80;;;;;;5011616;28;20440;-68
2021/10/30 01:04:31;;;;;;;14.82;11.55;;;11.30;92.80;;;;;;5007611;28;20026;-69
2021/10/30 01:06:58;;;;;;;14.52;10.73;;;11.30;92.80;;;;;;5007315;28;20117;-70
2021/10/30 01:09:24;;;;;;;16.73;11.77;;;11.30;92.80;;;;;;5007885;28;20053;-69
2021/10/30 01:11:52;;;;;;;14.88;12.02;;;11.40;92.80;;;;;;5008018;28;20037;-71
2021/10/30 01:14:19;;;;;;;15.23;12.07;;;11.40;92.80;;;;;;5006232;28;20038;-70
2021/10/30 01:17:03;;;;;;;19.17;12.20;;;11.40;92.70;;;;;;5009009;28;20416;-69
2021/10/30 01:19:30;;;;;;;19.85;12.82;;;11.50;92.80;;;;;;5006804;28;20050;-70
2021/10/30 01:21:57;;;;;;;17.70;12.65;;;11.50;92.70;;;;;;5009132;28;20038;-69
2021/10/30 01:24:22;;;;;;;16.02;11.88;;;11.50;92.60;;;;;;5006106;28;20464;-68
2021/10/30 01:26:49;;;;;;;15.98;12.18;;;11.60;92.60;;;;;;5007518;28;20517;-69
2021/10/30 01:29:15;;;;;;;15.23;12.75;;;11.60;92.70;;;;;;5011494;28;20486;-68
2021/10/30 01:31:41;;;;;;;15.55;12.57;;;11.60;92.70;;;;;;5010061;28;20068;-69
2021/10/30 01:34:08;;;;;;;17.10;12.75;;;11.60;92.70;;;;;;5008663;28;20045;-69
2021/10/30 01:36:35;;;;;;;17.52;12.30;;;11.60;92.80;;;;;;5021485;28;20045;-70
2021/10/30 01:39:05;;;;;;;16.83;12.48;;;11.60;92.80;;;;;;5007027;28;20042;-69
2021/10/30 01:41:31;;;;;;;16.70;12.32;;;11.70;92.80;;;;;;5002857;28;20128;-69
2021/10/30 01:43:57;;;;;;;15.55;11.68;;;11.70;92.70;;;;;;5006607;28;20548;-69
2021/10/30 01:46:24;;;;;;;15.73;11.40;;;11.80;92.80;;;;;;5006270;28;20037;-69
2021/10/30 01:48:50;;;;;;;15.85;10.93;;;11.70;92.70;;;;;;5008462;28;20084;-68
2021/10/30 01:51:17;;;;;;;14.80;11.02;;;11.70;92.80;;;;;;5007805;28;20498;-68
2021/10/30 01:53:44;;;;;;;15.70;11.23;;;11.70;92.80;;;;;;5007832;28;20042;-68
2021/10/30 01:56:10;;;;;;;16.02;11.95;;;11.80;92.70;;;;;;5006047;28;20480;-68
2021/10/30 01:58:37;;;;;;;14.18;11.13;;;11.80;92.70;;;;;;5010478;28;20034;-68
2021/10/30 02:01:04;;;;;;;14.50;10.68;;;11.80;92.70;;;;;;5007578;28;20054;-71
2021/10/30 02:03:31;;;;;;;12.75;10.63;;;11.80;92.70;;;;;;5005748;28;20089;-69
2021/10/30 02:05:58;;;;;;;13.15;10.45;;;11.70;92.60;;;;;;5006870;28;20432;-70
2021/10/30 02:08:24;;;;;;;14.50;10.43;;;11.70;92.70;;;;;;5005357;28;20026;-70
2021/10/30 02:10:50;;;;;;;15.30;10.35;;;11.80;92.70;;;;;;5007716;28;20034;-73
2021/10/30 02:13:16;;;;;;;15.00;10.48;;;11.70;92.70;;;;;;5008895;28;20040;-69
2021/10/30 02:15:41;;;;;;;14.30;10.63;;;11.80;92.70;;;;;;5007827;28;20022;-69
2021/10/30 02:18:08;;;;;;;13.38;10.55;;;11.80;92.70;;;;;;5007506;28;20073;-69
2021/10/30 02:20:34;;;;;;;14.63;11.48;;;11.90;92.80;;;;;;5006095;28;20166;-68
2021/10/30 02:23:00;;;;;;;15.85;10.50;;;11.90;92.70;;;;;;5007487;28;20080;-70
2021/10/30 02:25:26;;;;;;;16.35;11.63;;;11.90;92.80;;;;;;5013272;28;20414;-71
2021/10/30 02:27:52;;;;;;;15.95;12.30;;;11.90;92.80;;;;;;5008579;28;20045;-69
2021/10/30 02:30:18;;;;;;;14.60;11.50;;;12.00;92.80;;;;;;5009775;28;20447;-69
2021/10/30 02:32:44;;;;;;;16.30;12.45;;;12.00;92.80;;;;;;5016977;28;20045;-69
2021/10/30 02:35:11;;;;;;;17.00;12.50;;;12.10;92.70;;;;;;5011265;28;20091;-68
2021/10/30 02:37:38;;;;;;;15.43;11.80;;;12.10;92.80;;;;;;5009958;28;20026;-70
2021/10/30 02:40:05;;;;;;;14.13;11.55;;;12.10;92.70;;;;;;5017876;28;20064;-71
2021/10/30 02:42:31;;;;;;;16.42;13.20;;;12.10;92.80;;;;;;5009696;28;20113;-69
2021/10/30 02:44:57;;;;;;;14.85;11.90;;;12.10;92.70;;;;;;5013555;28;20521;-68
2021/10/30 02:47:23;;;;;;;18.40;12.70;;;12.10;92.80;;;;;;5010484;28;20038;-69
2021/10/30 02:49:48;;;;;;;15.77;12.10;;;12.10;92.80;;;;;;5012889;28;20177;-68
2021/10/30 02:52:14;;;;;;;17.60;12.73;;;12.20;92.70;;;;;;5008509;28;20378;-69
2021/10/30 02:54:39;;;;;;;16.80;12.38;;;12.20;92.70;;;;;;5019157;28;20061;-68
2021/10/30 02:57:05;;;;;;;18.77;13.20;;;12.20;92.60;;;;;;5013702;28;20049;-69
2021/10/30 02:59:31;;;;;;;16.80;13.02;;;12.20;92.60;;;;;;5030602;28;20117;-68
2021/10/30 03:01:57;;;;;;;15.50;12.48;;;12.30;92.60;;;;;;5017859;28;20088;-68
2021/10/30 03:04:22;;;;;;;17.63;11.82;;;12.30;92.60;;;;;;5023978;28;20535;-68
2021/10/30 03:06:48;;;;;;;15.95;12.82;;;12.30;92.40;;;;;;5009635;28;20159;-69
2021/10/30 03:09:14;;;;;;;15.00;12.35;;;12.30;92.40;;;;;;5010490;28;20072;-73
2021/10/30 03:11:40;;;;;;;16.63;12.30;;;12.30;92.40;;;;;;5025795;28;20036;-69
2021/10/30 03:14:05;;;;;;;16.67;13.02;;;12.30;92.40;;;;;;5010853;28;20499;-69
2021/10/30 03:16:31;;;;;;;17.40;12.77;;;12.40;92.30;;;;;;5008744;28;20035;-68
2021/10/30 03:18:57;;;;;;;18.10;13.70;;;12.40;92.30;;;;;;5012421;28;20533;-68
2021/10/30 03:21:23;;;;;;;17.33;12.95;;;12.40;92.30;;;;;;5009201;28;20474;-69
2021/10/30 03:23:49;;;;;;;17.58;13.23;;;12.40;92.40;;;;;;5005331;28;20390;-69
2021/10/30 03:26:15;;;;;;;15.95;13.15;;;12.40;92.30;;;;;;5006730;28;20052;-69
2021/10/30 03:28:41;;;;;;;16.45;14.10;;;12.50;92.30;;;;;;5011438;28;20489;-74
2021/10/30 03:31:06;;;;;;;20.08;13.88;;;12.50;92.30;;;;;;5017254;28;20026;-69
2021/10/30 03:33:32;;;;;;;19.25;14.88;;;12.60;92.40;;;;;;5018139;28;20038;-71
2021/10/30 03:35:58;;;;;;;17.98;13.25;;;12.60;92.40;;;;;;5022055;28;20045;-70
2021/10/30 03:38:24;;;;;;;17.23;14.10;;;12.60;92.50;;;;;;5008474;28;20041;-70
2021/10/30 03:40:50;;;;;;;18.88;13.82;;;12.60;92.60;;;;;;5008923;28;20041;-71
2021/10/30 03:43:16;;;;;;;16.75;13.65;;;12.60;92.50;;;;;;5007754;28;20046;-69
2021/10/30 03:45:42;;;;;;;17.50;12.93;;;12.60;92.50;;;;;;5013372;28;20032;-69
2021/10/30 03:48:08;;;;;;;17.23;13.82;;;12.60;92.50;;;;;;5006782;28;20539;-70
2021/10/30 03:50:35;;;;;;;16.23;13.75;;;12.60;92.60;;;;;;5010188;28;20026;-69
2021/10/30 03:53:00;;;;;;;19.05;13.40;;;12.60;92.60;;;;;;5009203;28;20022;-69
2021/10/30 03:55:26;;;;;;;16.40;13.48;;;12.60;92.50;;;;;;5007710;28;20036;-71
2021/10/30 03:57:52;;;;;;;17.38;13.27;;;12.60;92.50;;;;;;5015858;28;20093;-71
2021/10/30 04:00:18;;;;;;;19.30;13.68;;;12.70;92.40;;;;;;5014482;28;20038;-69
2021/10/30 04:02:44;;;;;;;17.52;12.75;;;12.70;92.40;;;;;;5020719;28;20362;-69
2021/10/30 04:05:10;;;;;;;15.77;12.75;;;12.70;92.50;;;;;;5014975;28;20462;-70
2021/10/30 04:07:36;;;;;;;14.82;11.88;;;12.80;92.40;;;;;;5015210;28;20109;-69
2021/10/30 04:10:02;;;;;;;16.02;12.25;;;12.80;92.30;;;;;;5010689;28;20022;-70
2021/10/30 04:12:28;;;;;;;15.65;12.15;;;12.80;92.40;;;;;;5008238;28;20021;-69
2021/10/30 04:14:53;;;;;;;15.45;12.88;;;12.80;92.30;;;;;;5008886;28;20429;-69
2021/10/30 04:17:19;;;;;;;16.77;12.95;;;12.80;92.30;;;;;;5008930;28;20121;-69
2021/10/30 04:19:45;;;;;;;16.30;13.13;;;12.90;92.40;;;;;;5014042;28;20093;-72
2021/10/30 04:22:10;;;;;;;16.70;12.65;;;12.90;92.50;;;;;;5012486;28;20026;-69
2021/10/30 04:24:36;;;;;;;17.77;13.07;;;12.90;92.40;;;;;;5009492;28;20042;-69
2021/10/30 04:27:02;;;;;;;17.55;12.75;;;12.90;92.50;;;;;;5008335;28;20037;-69
2021/10/30 04:29:28;;;;;;;15.93;12.77;;;12.90;92.50;;;;;;5010940;28;20060;-69
2021/10/30 04:31:55;;;;;;;17.65;12.90;;;12.90;92.50;;;;;;5004750;28;20065;-69
2021/10/30 04:34:23;;;;;;;15.27;12.98;;;12.80;92.50;;;;;;5007008;28;20515;-69
2021/10/30 04:36:50;;;;;;;16.77;13.18;;;12.90;92.60;;;;;;5008434;28;20034;-69
2021/10/30 04:39:19;;;;;;;19.30;12.90;;;12.90;92.60;;;;;;5018562;28;20050;-69
2021/10/30 04:41:45;;;;;;;16.67;13.23;;;12.90;92.50;;;;;;5009075;28;20046;-70
2021/10/30 04:44:10;;;;;;;16.50;12.68;;;13.00;92.50;;;;;;5012575;28;20038;-70
2021/10/30 04:46:37;;;;;;;14.93;12.43;;;13.00;92.50;;;;;;5011178;28;20041;-70
2021/10/30 04:49:03;;;;;;;16.77;12.07;;;13.00;92.40;;;;;;5006636;28;20487;-69
2021/10/30 04:51:28;;;;;;;21.50;12.63;;;13.00;92.30;;;;;;5008989;28;20022;-69
2021/10/30 04:53:54;;;;;;;16.83;11.85;;;13.00;92.30;;;;;;5007339;28;20397;-69
2021/10/30 04:56:19;;;;;;;14.55;12.02;;;12.90;92.30;;;;;;5011079;28;20385;-72
2021/10/30 04:58:45;;;;;;;16.48;12.25;;;12.90;92.30;;;;;;5008375;28;20038;-69
2021/10/30 05:01:13;;;;;;;15.40;13.00;;;13.00;92.30;;;;;;5009363;28;20026;-69
2021/10/30 05:03:39;;;;;;;17.38;12.57;;;13.00;92.30;;;;;;5014690;28;20025;-69
2021/10/30 05:06:05;;;;;;;15.48;12.50;;;13.00;92.20;;;;;;5014742;28;20116;-69
2021/10/30 05:08:30;;;;;;;16.38;11.75;;;13.00;92.30;;;;;;5011788;28;20121;-69
2021/10/30 05:10:56;;;;;;;19.27;13.13;;;12.90;92.30;;;;;;5010357;28;20054;-69
2021/10/30 05:13:22;;;;;;;15.98;11.80;;;12.90;92.30;;;;;;5009382;28;20450;-69
2021/10/30 05:15:47;;;;;;;16.75;12.35;;;12.90;92.30;;;;;;5007399;28;20030;-69
2021/10/30 05:18:13;;;;;;;15.10;12.52;;;12.90;92.40;;;;;;5007049;28;20095;-69
2021/10/30 05:20:38;;;;;;;14.52;11.93;;;12.90;92.40;;;;;;5012880;28;20096;-69
2021/10/30 05:23:04;;;;;;;15.65;12.88;;;12.90;92.40;;;;;;5008108;28;20052;-69
2021/10/30 05:25:30;;;;;;;18.40;12.77;;;12.90;92.30;;;;;;5008767;28;20022;-69
2021/10/30 05:27:55;;;;;;;16.02;12.57;;;12.90;92.40;;;;;;5006334;28;20076;-70
2021/10/30 05:30:21;;;;;;;15.73;12.82;;;12.90;92.40;;;;;;5013753;28;20046;-69
2021/10/30 05:32:47;;;;;;;17.85;11.45;;;12.90;92.20;;;;;;5009866;28;20034;-69
2021/10/30 05:35:13;;;;;;;14.05;11.55;;;12.90;92.30;;;;;;5006470;28;20045;-69
2021/10/30 05:37:38;;;;;;;14.27;11.35;;;12.90;92.30;;;;;;5004791;28;20038;-70
2021/10/30 05:40:07;;;;;;;15.55;10.95;;;12.90;92.30;;;;;;5007198;28;20029;-69
2021/10/30 05:42:35;;;;;;;16.88;11.95;;;12.90;92.30;;;;;;5005932;28;20030;-70
2021/10/30 05:45:07;;;;;;;12.93;11.45;;;12.90;92.20;;;;;;5006944;28;20042;-70
2021/10/30 05:47:34;;;;;;;15.85;11.43;;;12.90;92.30;;;;;;5007721;28;20030;-70
2021/10/30 05:50:01;;;;;;;15.35;11.57;;;12.90;92.20;;;;;;5005366;28;20040;-74
2021/10/30 05:52:27;;;;;;;16.17;11.75;;;12.90;92.10;;;;;;5007326;28;20105;-70
2021/10/30 05:54:52;;;;;;;13.27;11.00;;;13.00;92.10;;;;;;5008690;28;20125;-69
2021/10/30 05:57:18;;;;;;;14.48;10.93;;;12.90;92.10;;;;;;5017192;28;20030;-73
2021/10/30 05:59:44;;;;;;;15.00;10.73;;;12.90;92.10;;;;;;5009514;28;20120;-71
2021/10/30 06:02:12;;;;;;;15.02;11.18;;;12.90;92.00;;;;;;5006045;28;20037;-70
2021/10/30 06:04:38;;;;;;;15.85;10.50;;;12.90;92.00;;;;;;5006932;28;20046;-69
2021/10/30 06:07:05;;;;;;;16.23;10.95;;;12.90;91.80;;;;;;5005417;28;20545;-70
2021/10/30 06:09:30;;;;;;;14.38;10.95;;;12.90;91.90;;;;;;5022975;28;20523;-71
2021/10/30 06:11:56;;;;;;;15.98;11.07;;;12.90;92.00;;;;;;5011156;28;20038;-70
2021/10/30 06:14:22;;;;;;;12.85;10.20;;;12.90;91.90;;;;;;5009818;28;20038;-74
2021/10/30 06:16:47;;;;;;;12.35;9.57;;;12.80;91.90;;;;;;5011470;28;20481;-69
2021/10/30 06:19:13;;;;;;;13.35;10.10;;;12.80;91.90;;;;;;5007129;28;20049;-69
2021/10/30 06:21:39;;;;;;;13.00;10.05;;;12.80;91.80;;;;;;5010388;28;20042;-71
2021/10/30 06:24:04;;;;;;;14.98;9.73;;;12.90;91.80;;;;;;5010081;28;20038;-69
2021/10/30 06:26:30;;;;;;;12.93;9.70;;;12.80;91.70;;;;;;5012258;28;20133;-71
2021/10/30 06:28:56;;;;;;;13.43;11.00;;;12.80;91.70;;;;;;5012099;28;20065;-69
2021/10/30 06:31:22;;;;;;;19.58;11.32;;;12.80;91.50;;;;;;5013965;28;20869;-68
2021/10/30 06:33:51;;;;;;;12.57;10.05;;;12.80;91.60;;;;;;5025972;28;20138;-70
2021/10/30 06:36:17;;;;;;;12.02;9.73;;;12.80;91.60;;;;;;5008258;28;20062;-69
2021/10/30 06:38:43;;;;;;;12.40;9.82;;;12.80;91.40;;;;;;5015713;28;20410;-69
2021/10/30 06:41:11;;;;;;;13.43;9.98;;;12.80;91.50;;;;;;5008978;28;20048;-70
2021/10/30 06:43:38;;;;;;;14.30;9.63;;;12.80;91.40;;;;;;5006880;28;20046;-69
2021/10/30 06:46:03;;;;;;;11.50;9.40;;;12.80;91.40;;;;;;5021843;28;20038;-70
2021/10/30 06:48:29;;;;;;;13.38;9.02;;;12.90;91.10;;;;;;5009158;28;20039;-73
2021/10/30 06:50:56;;;;;;;12.68;8.95;;;12.90;91.10;;;;;;5011169;28;20034;-69
2021/10/30 06:53:21;;;;;;;13.95;9.10;;;12.90;90.80;;;;;;5007734;28;20890;-69
2021/10/30 06:55:48;;;;;;;14.52;9.60;;;12.90;90.70;;;;;;5015959;28;20034;-69
2021/10/30 06:58:16;;;;;;;14.35;9.48;;;12.90;90.80;;;;;;5010536;28;20058;-70
2021/10/30 07:00:42;;;;;;;12.48;8.82;;;12.90;90.80;;;;;;5010754;28;20125;-69
2021/10/30 07:03:09;;;;;;;13.65;9.02;;;12.90;90.80;;;;;;5005477;28;20109;-73
2021/10/30 07:05:35;;;;;;;15.48;9.82;;;12.90;90.90;;;;;;4998349;28;20062;-67
2021/10/30 07:08:01;;;;;;;15.35;10.25;;;12.90;91.10;;;;;;5009478;28;20033;-68
2021/10/30 07:10:27;;;;;;;13.15;9.02;;;12.90;91.10;;;;;;5010323;28;20084;-69
2021/10/30 07:12:52;;;;;;;14.50;9.73;;;12.90;91.20;;;;;;5010900;28;20037;-72
2021/10/30 07:15:19;;;;;;;12.38;9.30;;;12.90;91.00;;;;;;5009734;28;20034;-68
2021/10/30 07:17:44;;;;;;;12.63;9.65;;;12.90;91.10;;;;;;5023935;28;20056;-68
2021/10/30 07:20:10;;;;;;;12.95;9.60;;;12.90;91.20;;;;;;5008044;28;20482;-68
2021/10/30 07:22:44;;;;;;;13.52;8.68;;;12.90;91.30;;;;;;5010394;28;20026;-68
2021/10/30 07:25:10;;;;;;;13.88;9.32;;;12.90;91.30;;;;;;5023368;28;20052;-68
2021/10/30 07:27:37;;;;;;;12.88;8.85;;;12.90;91.40;;;;;;5014955;28;20038;-68
2021/10/30 07:30:07;;;;;;;12.02;8.38;;;13.00;91.40;;;;;;5014435;28;20165;-68
2021/10/30 07:32:34;;;;;;;13.75;8.93;;;13.00;91.50;;;;;;5011903;28;20034;-68
2021/10/30 07:35:02;;;;;;;12.32;8.93;;;13.00;91.70;;;;;;5013125;28;20088;-68
2021/10/30 07:37:27;;;;;;;12.20;8.55;;;12.90;91.80;;;;;;5008906;28;20029;-68
2021/10/30 07:39:53;;;;;;;12.57;8.68;;;13.00;91.90;;;;;;5008704;28;20409;-69
2021/10/30 07:42:19;;;;;;;12.50;8.55;;;13.00;92.00;;;;;;5008766;28;20061;-68
2021/10/30 07:44:45;;;;;;;11.25;8.88;;;13.00;92.10;;;;;;5009664;28;20049;-68
2021/10/30 07:47:12;;;;;;;12.27;8.07;;;12.90;92.40;;;;;;5010079;28;20111;-68
2021/10/30 07:49:38;;;;;;;13.90;8.40;;;12.90;92.50;;;;;;5013305;28;20049;-68
2021/10/30 07:52:05;;;;;;;12.95;8.85;;;12.90;92.60;;;;;;5015995;28;20424;-67
2021/10/30 07:54:32;;;;;;;11.38;8.55;;;13.00;92.70;;;;;;5014521;28;20085;-67
2021/10/30 07:56:59;;;;;;;11.75;8.73;;;12.90;92.70;;;;;;5008605;28;20022;-68
2021/10/30 07:59:24;;;;;;;10.63;8.18;;;12.90;92.70;;;;;;5014444;28;20346;-68
2021/10/30 08:01:52;;;;;;;13.75;8.63;;;12.90;92.80;;;;;;5008537;28;20056;-67
2021/10/30 08:04:18;;;;;;;12.32;9.15;;;13.00;92.70;;;;;;5009697;28;20041;-68
2021/10/30 08:06:44;;;;;;;9.70;7.90;;;13.00;92.70;;;;;;5007069;28;20393;-67
2021/10/30 08:09:10;;;;;;;12.65;8.57;;;13.00;92.70;;;;;;5008485;28;20208;-68
2021/10/30 08:11:36;;;;;;;9.77;8.00;;;12.90;92.80;;;;;;5006545;28;20041;-68
2021/10/30 08:14:02;;;;;;;12.40;8.63;;;13.00;92.80;;;;;;5008139;28;20038;-70
2021/10/30 08:16:28;;;;;;;10.88;8.20;;;13.00;92.80;;;;;;5008889;28;20038;-68
2021/10/30 08:18:54;;;;;;;12.98;8.88;;;13.00;92.80;;;;;;5008589;28;20103;-68
2021/10/30 08:21:21;;;;;;;12.15;8.48;;;13.10;92.80;;;;;;5008233;28;20451;-72
2021/10/30 08:23:47;;;;;;;12.25;8.95;;;13.10;92.80;;;;;;5008079;28;20127;-68
2021/10/30 08:26:12;;;;;;;12.13;7.88;;;13.10;92.80;;;;;;5006058;28;20026;-68
2021/10/30 08:28:38;;;;;;;11.13;8.82;;;13.10;92.80;;;;;;5010074;28;20045;-67
2021/10/30 08:31:04;;;;;;;11.25;8.30;;;13.10;92.80;;;;;;5008019;28;20030;-67
2021/10/30 08:33:30;;;;;;;12.07;8.10;;;13.10;92.90;;;;;;5009297;28;20046;-69
2021/10/30 08:35:55;;;;;;;11.50;7.85;;;13.10;92.90;;;;;;5008986;28;20544;-67
2021/10/30 08:38:21;;;;;;;14.88;8.50;;;13.10;93.00;;;;;;5006463;28;20488;-68
2021/10/30 08:40:47;;;;;;;11.55;8.25;;;13.10;93.00;;;;;;5008360;28;20057;-68
2021/10/30 08:43:23;;;;;;;15.80;8.93;;;13.20;93.00;;;;;;5007487;28;20041;-69
2021/10/30 08:45:50;;;;;;;10.40;8.38;;;13.20;93.10;;;;;;5008297;28;20077;-68
2021/10/30 08:48:19;;;;;;;11.48;7.63;;;13.30;93.00;;;;;;5008084;28;20485;-68
2021/10/30 08:50:45;;;;;;;10.52;7.57;;;13.30;93.00;;;;;;5011052;28;20041;-68
2021/10/30 08:53:11;;;;;;;10.80;7.38;;;13.30;93.00;;;;;;5006281;28;20052;-69
2021/10/30 08:55:37;;;;;;;10.32;7.40;;;13.30;92.90;;;;;;5009207;28;20037;-70
2021/10/30 08:58:11;;;;;;;11.63;7.50;;;13.40;92.80;;;;;;5011977;28;20030;-69
2021/10/30 09:00:49;;;;;;;11.85;7.93;;;13.30;92.80;;;;;;5020893;28;20041;-69
2021/10/30 09:03:18;;;;;;;10.82;6.90;;;13.30;92.90;;;;;;5005866;28;20428;-68
2021/10/30 09:05:46;;;;;;;11.38;7.53;;;13.30;92.90;;;;;;5007866;28;20042;-69
2021/10/30 09:08:12;;;;;;;10.00;7.25;;;13.40;92.90;;;;;;5002624;28;20030;-69
2021/10/30 09:10:47;;;;;;;10.60;7.75;;;13.30;92.90;;;;;;5006845;28;20113;-70
2021/10/30 09:13:14;;;;;;;10.25;7.60;;;13.40;92.80;;;;;;5005889;28;20033;-68
2021/10/30 09:15:49;;;;;;;9.45;7.07;;;13.30;92.70;;;;;;5004062;28;20034;-69
2021/10/30 09:18:30;;;;;;;10.60;7.28;;;13.40;92.70;;;;;;5003185;28;20468;-69
2021/10/30 09:21:07;;;;;;;10.40;7.50;;;13.30;92.80;;;;;;5010955;28;20429;-69
2021/10/30 09:23:58;;;;;;;13.38;7.72;;;13.40;92.70;;;;;;5005221;28;20049;-68
2021/10/30 09:26:30;;;;;;;10.40;7.05;;;13.40;92.80;;;;;;5003865;28;20030;-70
2021/10/30 09:29:05;;;;;;;10.13;7.65;;;13.30;92.80;;;;;;5007081;28;20038;-68
2021/10/30 09:31:31;;;;;;;11.68;7.70;;;13.30;92.90;;;;;;5002333;28;20046;-70
2021/10/30 09:34:00;;;;;;;10.48;8.10;;;13.30;93.00;;;;;;5025613;28;20367;-68
2021/10/30 09:36:30;;;;;;;11.05;8.13;;;13.40;92.90;;;;;;5006673;28;20026;-68
2021/10/30 09:39:03;;;;;;;10.27;8.02;;;13.40;93.00;;;;;;5005068;28;20279;-69
2021/10/30 09:41:31;;;;;;;10.10;7.60;;;13.40;92.90;;;;;;5005404;28;20030;-69
2021/10/30 09:44:08;;;;;;;11.15;7.38;;;13.40;92.80;;;;;;5011466;28;20057;-68
2021/10/30 09:46:45;;;;;;;10.10;8.00;;;13.40;92.80;;;;;;5012663;28;20121;-68
2021/10/30 09:49:13;;;;;;;11.45;7.78;;;13.50;92.70;;;;;;5010706;28;20112;-73
2021/10/30 09:51:39;;;;;;;10.95;7.68;;;13.50;92.70;;;;;;5021719;28;20425;-68
2021/10/30 09:54:06;;;;;;;9.25;7.07;;;13.50;92.70;;;;;;5009896;28;20107;-68
2021/10/30 09:56:46;;;;;;;9.70;7.15;;;13.60;92.60;;;;;;5007693;28;20433;-68
2021/10/30 09:59:13;;;;;;;10.27;6.88;;;13.70;92.40;;;;;;5010262;28;20150;-67
2021/10/30 10:01:39;;;;;;;9.57;6.60;;;13.80;92.20;;;;;;5012881;28;20069;-68
2021/10/30 10:04:05;;;;;;;10.38;6.05;;;14.10;92.10;;;;;;5008995;28;20081;-68
2021/10/30 10:06:32;;;;;;;8.95;6.25;;;14.10;91.50;;;;;;5010789;28;20030;-68
2021/10/30 10:09:01;;;;;;;9.73;6.32;;;14.20;90.80;;;;;;5011344;28;20126;-68
2021/10/30 10:11:26;;;;;;;9.90;5.90;;;14.30;90.60;;;;;;5010568;28;20037;-73
2021/10/30 10:13:53;;;;;;;9.05;5.68;;;14.30;90.50;;;;;;5012690;28;20411;-68
2021/10/30 10:16:20;;;;;;;7.85;5.63;;;14.40;90.30;;;;;;5010094;28;20034;-68
2021/10/30 10:18:47;;;;;;;8.30;5.28;;;14.40;90.00;;;;;;5007424;28;20056;-68
2021/10/30 10:21:19;;;;;;;8.88;5.65;;;14.40;90.00;;;;;;5015232;28;20508;-71
2021/10/30 10:23:45;;;;;;;9.20;5.30;;;14.30;89.90;;;;;;5016310;28;20592;-68
2021/10/30 10:26:12;;;;;;;9.52;5.00;;;14.30;90.00;;;;;;5015882;28;20034;-68
2021/10/30 10:28:38;;;;;;;8.05;5.40;;;14.20;90.20;;;;;;5013129;28;20038;-68
2021/10/30 10:31:11;;;;;;;11.48;5.32;;;14.10;90.30;;;;;;5031231;28;20045;-68
2021/10/30 10:33:39;;;;;;;9.25;6.05;;;14.10;90.60;;;;;;5027947;28;20033;-69
2021/10/30 10:36:14;;;;;;;8.40;5.65;;;14.10;90.80;;;;;;5020401;28;20049;-68
2021/10/30 10:38:58;;;;;;;10.07;6.25;;;14.00;91.10;;;;;;5006005;28;20053;-68
2021/10/30 10:41:45;;;;;;;9.43;6.53;;;14.00;91.20;;;;;;5011637;28;20061;-68
2021/10/30 10:44:12;;;;;;;10.10;6.10;;;14.00;91.40;;;;;;5036549;28;20065;-68
2021/10/30 10:46:54;;;;;;;11.38;6.68;;;13.90;91.50;;;;;;5010335;28;20030;-68
2021/10/30 10:49:45;;;;;;;9.00;6.20;;;14.00;91.50;;;;;;5021055;28;20038;-68
2021/10/30 10:52:32;;;;;;;8.90;6.53;;;13.90;91.60;;;;;;5011109;28;20057;-68
2021/10/30 10:55:03;;;;;;;10.25;6.32;;;14.00;91.70;;;;;;4998735;28;20132;-68
2021/10/30 10:57:47;;;;;;;9.68;6.55;;;14.00;91.70;;;;;;5007927;28;20121;-68
2021/10/30 11:00:18;;;;;;;8.82;6.38;;;14.00;91.60;;;;;;5017115;28;20046;-68
2021/10/30 11:02:46;;;;;;;8.77;6.40;;;14.00;91.60;;;;;;5010374;28;20116;-67
2021/10/30 11:05:18;;;;;;;9.43;6.78;;;14.00;91.60;;;;;;5005960;28;20057;-68
2021/10/30 11:08:19;;;;;;;9.70;6.68;;;14.00;91.50;;;;;;5007056;28;20069;-67
2021/10/30 11:10:44;;;;;;;9.07;6.80;;;14.10;91.60;;;;;;5005193;28;20042;-69
2021/10/30 11:13:13;;;;;;;9.85;6.55;;;14.10;91.50;;;;;;5023833;28;20046;-68
2021/10/30 11:15:50;;;;;;;10.52;7.32;;;14.00;91.40;;;;;;5010235;28;20104;-67
2021/10/30 11:18:32;;;;;;;8.70;5.80;;;14.00;91.50;;;;;;5009657;28;20753;-68
2021/10/30 11:21:12;;;;;;;8.50;7.05;;;14.10;91.50;;;;;;5009391;28;20389;-68
2021/10/30 11:23:43;;;;;;;10.52;6.88;;;14.20;91.60;;;;;;5009941;28;20444;-67
2021/10/30 11:26:10;;;;;;;9.20;6.13;;;14.30;91.30;;;;;;5013589;28;20042;-67
2021/10/30 11:28:38;;;;;;;9.63;6.50;;;14.30;90.90;;;;;;5010049;28;20481;-68
2021/10/30 11:31:18;;;;;;;9.68;5.63;;;14.40;90.70;;;;;;5013284;28;20030;-67
2021/10/30 11:33:45;;;;;;;8.20;5.97;;;14.40;90.70;;;;;;5007236;28;20065;-68
2021/10/30 11:36:12;;;;;;;9.52;5.55;;;14.40;90.60;;;;;;5011237;28;20037;-68
2021/10/30 11:38:50;;;;;;;9.63;6.10;;;14.50;90.50;;;;;;5019348;28;20030;-68
2021/10/30 11:41:19;;;;;;;7.78;5.80;;;14.40;90.60;;;;;;5000081;28;20466;-68
2021/10/30 11:43:47;;;;;;;8.57;5.97;;;14.50;90.50;;;;;;5009147;28;20104;-68
2021/10/30 11:46:19;;;;;;;7.88;5.90;;;14.50;90.50;;;;;;5005433;28;20022;-68
2021/10/30 11:48:48;;;;;;;9.15;5.40;;;14.40;90.40;;;;;;5009813;28;20041;-68
2021/10/30 11:51:21;;;;;;;9.27;6.07;;;14.40;90.40;;;;;;5007691;28;20022;-69
2021/10/30 11:53:49;;;;;;;8.65;5.35;;;14.40;90.60;;;;;;5008946;28;20115;-71
2021/10/30 11:56:25;;;;;;;8.85;6.07;;;14.30;90.70;;;;;;5024066;28;20030;-69
2021/10/30 11:58:55;;;;;;;8.80;5.70;;;14.20;91.10;;;;;;5012354;28;20374;-67
2021/10/30 12:01:28;;;;;;;9.43;6.50;;;14.20;91.30;;;;;;5007735;28;20475;-68
2021/10/30 12:04:14;;;;;;;8.73;5.80;;;14.20;91.50;;;;;;5011687;28;20402;-68
2021/10/30 12:06:44;;;;;;;8.95;5.97;;;14.10;91.50;;;;;;5011168;28;20140;-68
2021/10/30 12:09:39;;;;;;;9.27;6.43;;;14.10;91.70;;;;;;5020308;28;20118;-68
2021/10/30 12:12:17;;;;;;;9.23;6.20;;;14.10;91.90;;;;;;5014450;28;20546;-68
2021/10/30 12:14:48;;;;;;;9.07;6.20;;;14.10;92.10;;;;;;5011213;28;20025;-68
2021/10/30 12:17:26;;;;;;;10.63;6.63;;;14.20;92.10;;;;;;5021855;28;20034;-68
2021/10/30 12:19:56;;;;;;;7.80;5.30;;;14.20;92.10;;;;;;5005472;28;20045;-68
2021/10/30 12:22:24;;;;;;;10.13;5.43;;;14.20;92.00;;;;;;5006489;28;20034;-68
2021/10/30 12:25:14;;;;;;;8.85;4.97;;;14.20;92.00;;;;;;5007715;28;20072;-69
2021/10/30 12:27:48;;;;;;;7.63;5.15;;;14.20;92.10;;;;;;5010478;28;20038;-69
2021/10/30 12:30:20;;;;;;;6.38;4.25;;;14.20;92.00;;;;;;5008056;28;20033;-69
2021/10/30 12:32:48;;;;;;;7.82;4.05;;;14.20;92.10;;;;;;5007999;28;20050;-72
2021/10/30 12:35:19;;;;;;;6.45;4.20;;;14.20;92.00;;;;;;5006353;28;20042;-69
2021/10/30 12:37:47;;;;;;;6.43;3.83;;;14.30;92.00;;;;;;5008211;28;20033;-69